sensor_id;sensor_type;location;lat;lon;timestamp;P1;durP1;ratioP1;P2;durP2;ratioP2
22180;SDS011;11256;50.830;12.834;2022-09-09T00:02:37;0.63;;;0.63;;
22180;SDS011;11256;50.830;12.834;2022-09-09T00:12:55;0.57;;;0.57;;
22180;SDS011;11256;50.830;12.834;2022-09-09T00:23:19;0.47;;;0.47;;
22180;SDS011;11256;50.830;12.834;2022-09-09T00:28:26;0.50;;;0.50;;
22180;SDS011;11256;50.830;12.834;2022-09-09T00:33:29;0.50;;;0.50;;
22180;SDS011;11256;50.830;12.834;2022-09-09T00:38:35;0.57;;;0.57;;
22180;SDS011;11256;50.830;12.834;2022-09-09T00:43:41;0.40;;;0.40;;
22180;SDS011;11256;50.830;12.834;2022-09-09T00:54:10;0.40;;;0.40;;
22180;SDS011;11256;50.830;12.834;2022-09-09T00:59:34;0.40;;;0.40;;
22180;SDS011;11256;50.830;12.834;2022-09-09T01:05:02;0.60;;;0.60;;
22180;SDS011;11256;50.830;12.834;2022-09-09T01:10:15;0.73;;;0.73;;
22180;SDS011;11256;50.830;12.834;2022-09-09T01:15:27;0.60;;;0.60;;
22180;SDS011;11256;50.830;12.834;2022-09-09T01:20:37;0.60;;;0.60;;
22180;SDS011;11256;50.830;12.834;2022-09-09T01:31:35;0.40;;;0.40;;
22180;SDS011;11256;50.830;12.834;2022-09-09T01:36:43;0.47;;;0.47;;
22180;SDS011;11256;50.830;12.834;2022-09-09T01:41:51;0.50;;;0.50;;
22180;SDS011;11256;50.830;12.834;2022-09-09T01:46:54;0.50;;;0.50;;
22180;SDS011;11256;50.830;12.834;2022-09-09T01:51:55;0.80;;;0.80;;
22180;SDS011;11256;50.830;12.834;2022-09-09T01:57:15;0.50;;;0.50;;
22180;SDS011;11256;50.830;12.834;2022-09-09T02:07:55;0.50;;;0.50;;
22180;SDS011;11256;50.830;12.834;2022-09-09T02:13:22;0.60;;;0.60;;
22180;SDS011;11256;50.830;12.834;2022-09-09T02:18:26;0.50;;;0.50;;
22180;SDS011;11256;50.830;12.834;2022-09-09T02:23:30;0.50;;;0.50;;
22180;SDS011;11256;50.830;12.834;2022-09-09T02:28:35;0.50;;;0.50;;
22180;SDS011;11256;50.830;12.834;2022-09-09T02:33:40;0.50;;;0.50;;
22180;SDS011;11256;50.830;12.834;2022-09-09T02:38:45;0.43;;;0.43;;
22180;SDS011;11256;50.830;12.834;2022-09-09T02:43:55;0.70;;;0.70;;
22180;SDS011;11256;50.830;12.834;2022-09-09T02:54:26;0.60;;;0.60;;
22180;SDS011;11256;50.830;12.834;2022-09-09T02:59:33;0.50;;;0.50;;
22180;SDS011;11256;50.830;12.834;2022-09-09T03:04:34;0.50;;;0.50;;
22180;SDS011;11256;50.830;12.834;2022-09-09T03:09:35;0.50;;;0.50;;
22180;SDS011;11256;50.830;12.834;2022-09-09T03:14:35;0.40;;;0.40;;
22180;SDS011;11256;50.830;12.834;2022-09-09T03:19:36;0.47;;;0.47;;
22180;SDS011;11256;50.830;12.834;2022-09-09T03:24:38;0.50;;;0.50;;
22180;SDS011;11256;50.830;12.834;2022-09-09T03:29:39;0.50;;;0.50;;
22180;SDS011;11256;50.830;12.834;2022-09-09T03:34:43;0.50;;;0.50;;
22180;SDS011;11256;50.830;12.834;2022-09-09T03:39:46;0.60;;;0.60;;
22180;SDS011;11256;50.830;12.834;2022-09-09T03:44:49;0.50;;;0.50;;
22180;SDS011;11256;50.830;12.834;2022-09-09T03:49:51;0.50;;;0.50;;
22180;SDS011;11256;50.830;12.834;2022-09-09T03:54:52;0.50;;;0.50;;
22180;SDS011;11256;50.830;12.834;2022-09-09T03:59:54;0.50;;;0.50;;
22180;SDS011;11256;50.830;12.834;2022-09-09T04:04:55;0.57;;;0.57;;
22180;SDS011;11256;50.830;12.834;2022-09-09T04:09:56;0.50;;;0.50;;
22180;SDS011;11256;50.830;12.834;2022-09-09T04:14:57;0.60;;;0.60;;
22180;SDS011;11256;50.830;12.834;2022-09-09T04:19:57;0.60;;;0.60;;
22180;SDS011;11256;50.830;12.834;2022-09-09T04:24:58;0.50;;;0.50;;
22180;SDS011;11256;50.830;12.834;2022-09-09T04:29:58;0.50;;;0.50;;
22180;SDS011;11256;50.830;12.834;2022-09-09T04:35:01;0.50;;;0.50;;
22180;SDS011;11256;50.830;12.834;2022-09-09T04:40:01;0.50;;;0.50;;
22180;SDS011;11256;50.830;12.834;2022-09-09T04:45:04;0.60;;;0.60;;
22180;SDS011;11256;50.830;12.834;2022-09-09T04:50:05;0.60;;;0.60;;
22180;SDS011;11256;50.830;12.834;2022-09-09T04:55:08;0.50;;;0.50;;
22180;SDS011;11256;50.830;12.834;2022-09-09T05:00:09;0.50;;;0.50;;
22180;SDS011;11256;50.830;12.834;2022-09-09T05:05:13;0.50;;;0.50;;
22180;SDS011;11256;50.830;12.834;2022-09-09T05:10:14;0.60;;;0.60;;
22180;SDS011;11256;50.830;12.834;2022-09-09T05:15:19;0.50;;;0.50;;
22180;SDS011;11256;50.830;12.834;2022-09-09T05:20:21;0.53;;;0.53;;
22180;SDS011;11256;50.830;12.834;2022-09-09T05:25:22;0.63;;;0.63;;
22180;SDS011;11256;50.830;12.834;2022-09-09T05:30:26;0.50;;;0.50;;
22180;SDS011;11256;50.830;12.834;2022-09-09T05:35:27;0.50;;;0.50;;
22180;SDS011;11256;50.830;12.834;2022-09-09T05:40:27;0.77;;;0.77;;
22180;SDS011;11256;50.830;12.834;2022-09-09T05:45:28;0.60;;;0.60;;
22180;SDS011;11256;50.830;12.834;2022-09-09T05:50:29;0.50;;;0.50;;
22180;SDS011;11256;50.830;12.834;2022-09-09T05:55:32;0.50;;;0.50;;
22180;SDS011;11256;50.830;12.834;2022-09-09T06:00:33;0.60;;;0.60;;
22180;SDS011;11256;50.830;12.834;2022-09-09T06:05:34;0.40;;;0.40;;
22180;SDS011;11256;50.830;12.834;2022-09-09T06:10:35;0.50;;;0.50;;
22180;SDS011;11256;50.830;12.834;2022-09-09T06:15:36;0.50;;;0.50;;
22180;SDS011;11256;50.830;12.834;2022-09-09T06:20:37;0.50;;;0.50;;
22180;SDS011;11256;50.830;12.834;2022-09-09T06:25:38;0.50;;;0.50;;
22180;SDS011;11256;50.830;12.834;2022-09-09T06:30:41;0.70;;;0.70;;
22180;SDS011;11256;50.830;12.834;2022-09-09T06:35:45;0.50;;;0.50;;
22180;SDS011;11256;50.830;12.834;2022-09-09T06:40:54;0.93;;;0.90;;
22180;SDS011;11256;50.830;12.834;2022-09-09T06:45:58;0.60;;;0.60;;
22180;SDS011;11256;50.830;12.834;2022-09-09T06:51:04;0.50;;;0.50;;
22180;SDS011;11256;50.830;12.834;2022-09-09T07:01:11;0.50;;;0.50;;
22180;SDS011;11256;50.830;12.834;2022-09-09T07:06:18;0.50;;;0.50;;
22180;SDS011;11256;50.830;12.834;2022-09-09T07:11:21;0.50;;;0.50;;
22180;SDS011;11256;50.830;12.834;2022-09-09T07:16:23;0.50;;;0.50;;
22180;SDS011;11256;50.830;12.834;2022-09-09T07:21:25;0.60;;;0.60;;
22180;SDS011;11256;50.830;12.834;2022-09-09T07:26:28;0.47;;;0.47;;
22180;SDS011;11256;50.830;12.834;2022-09-09T07:31:33;0.40;;;0.40;;
22180;SDS011;11256;50.830;12.834;2022-09-09T07:36:38;0.40;;;0.40;;
22180;SDS011;11256;50.830;12.834;2022-09-09T07:41:42;0.50;;;0.50;;
22180;SDS011;11256;50.830;12.834;2022-09-09T07:46:47;0.50;;;0.50;;
22180;SDS011;11256;50.830;12.834;2022-09-09T07:51:52;0.47;;;0.47;;
22180;SDS011;11256;50.830;12.834;2022-09-09T07:56:53;0.73;;;0.73;;
22180;SDS011;11256;50.830;12.834;2022-09-09T08:01:56;0.50;;;0.50;;
22180;SDS011;11256;50.830;12.834;2022-09-09T08:07:01;0.40;;;0.40;;
22180;SDS011;11256;50.830;12.834;2022-09-09T08:12:06;0.40;;;0.40;;
22180;SDS011;11256;50.830;12.834;2022-09-09T08:17:07;0.50;;;0.50;;
22180;SDS011;11256;50.830;12.834;2022-09-09T08:22:08;0.37;;;0.37;;
22180;SDS011;11256;50.830;12.834;2022-09-09T08:27:10;0.43;;;0.43;;
22180;SDS011;11256;50.830;12.834;2022-09-09T08:32:12;0.50;;;0.50;;
22180;SDS011;11256;50.830;12.834;2022-09-09T08:37:13;0.50;;;0.50;;
22180;SDS011;11256;50.830;12.834;2022-09-09T08:47:48;0.30;;;0.30;;
22180;SDS011;11256;50.830;12.834;2022-09-09T08:52:59;0.40;;;0.40;;
22180;SDS011;11256;50.830;12.834;2022-09-09T08:58:09;0.33;;;0.33;;
22180;SDS011;11256;50.830;12.834;2022-09-09T09:09:02;0.30;;;0.30;;
22180;SDS011;11256;50.830;12.834;2022-09-09T09:14:26;0.20;;;0.20;;
22180;SDS011;11256;50.830;12.834;2022-09-09T09:19:35;0.30;;;0.30;;
22180;SDS011;11256;50.830;12.834;2022-09-09T09:24:42;0.20;;;0.20;;
22180;SDS011;11256;50.830;12.834;2022-09-09T09:30:12;0.20;;;0.20;;
22180;SDS011;11256;50.830;12.834;2022-09-09T09:35:15;0.30;;;0.30;;
22180;SDS011;11256;50.830;12.834;2022-09-09T09:40:17;0.23;;;0.23;;
22180;SDS011;11256;50.830;12.834;2022-09-09T09:45:26;0.30;;;0.30;;
22180;SDS011;11256;50.830;12.834;2022-09-09T09:50:29;0.30;;;0.30;;
22180;SDS011;11256;50.830;12.834;2022-09-09T09:55:32;0.20;;;0.20;;
22180;SDS011;11256;50.830;12.834;2022-09-09T10:00:35;0.20;;;0.20;;
22180;SDS011;11256;50.830;12.834;2022-09-09T10:05:44;0.20;;;0.20;;
22180;SDS011;11256;50.830;12.834;2022-09-09T10:10:49;0.20;;;0.20;;
22180;SDS011;11256;50.830;12.834;2022-09-09T10:32:39;0.20;;;0.20;;
22180;SDS011;11256;50.830;12.834;2022-09-09T10:43:17;0.20;;;0.20;;
22180;SDS011;11256;50.830;12.834;2022-09-09T10:49:11;0.20;;;0.20;;
22180;SDS011;11256;50.830;12.834;2022-09-09T10:54:16;0.20;;;0.20;;
22180;SDS011;11256;50.830;12.834;2022-09-09T10:59:28;0.20;;;0.20;;
22180;SDS011;11256;50.830;12.834;2022-09-09T11:04:56;0.30;;;0.30;;
22180;SDS011;11256;50.830;12.834;2022-09-09T11:10:03;0.20;;;0.20;;
22180;SDS011;11256;50.830;12.834;2022-09-09T11:20:47;0.23;;;0.20;;
22180;SDS011;11256;50.830;12.834;2022-09-09T11:25:56;0.27;;;0.27;;
22180;SDS011;11256;50.830;12.834;2022-09-09T11:36:48;0.20;;;0.20;;
22180;SDS011;11256;50.830;12.834;2022-09-09T11:42:05;0.20;;;0.20;;
22180;SDS011;11256;50.830;12.834;2022-09-09T11:47:27;0.17;;;0.17;;
22180;SDS011;11256;50.830;12.834;2022-09-09T11:52:39;0.20;;;0.20;;
22180;SDS011;11256;50.830;12.834;2022-09-09T11:57:42;0.10;;;0.10;;
22180;SDS011;11256;50.830;12.834;2022-09-09T12:02:48;0.17;;;0.17;;
22180;SDS011;11256;50.830;12.834;2022-09-09T12:07:59;0.20;;;0.20;;
22180;SDS011;11256;50.830;12.834;2022-09-09T12:13:19;0.20;;;0.20;;
22180;SDS011;11256;50.830;12.834;2022-09-09T12:18:25;0.20;;;0.20;;
22180;SDS011;11256;50.830;12.834;2022-09-09T12:23:51;0.17;;;0.17;;
22180;SDS011;11256;50.830;12.834;2022-09-09T12:28:58;0.10;;;0.10;;
22180;SDS011;11256;50.830;12.834;2022-09-09T12:39:49;0.10;;;0.10;;
22180;SDS011;11256;50.830;12.834;2022-09-09T12:44:55;0.22;;;0.22;;
22180;SDS011;11256;50.830;12.834;2022-09-09T12:49:57;0.10;;;0.10;;
22180;SDS011;11256;50.830;12.834;2022-09-09T12:54:59;0.20;;;0.20;;
22180;SDS011;11256;50.830;12.834;2022-09-09T13:00:15;0.17;;;0.17;;
22180;SDS011;11256;50.830;12.834;2022-09-09T13:05:19;0.10;;;0.10;;
22180;SDS011;11256;50.830;12.834;2022-09-09T13:10:24;0.10;;;0.10;;
22180;SDS011;11256;50.830;12.834;2022-09-09T13:15:28;0.20;;;0.20;;
22180;SDS011;11256;50.830;12.834;2022-09-09T13:20:29;0.10;;;0.10;;
22180;SDS011;11256;50.830;12.834;2022-09-09T13:25:30;1.30;;;1.20;;
22180;SDS011;11256;50.830;12.834;2022-09-09T13:30:32;0.10;;;0.10;;
22180;SDS011;11256;50.830;12.834;2022-09-09T13:35:45;0.10;;;0.10;;
22180;SDS011;11256;50.830;12.834;2022-09-09T13:40:57;0.10;;;0.10;;
22180;SDS011;11256;50.830;12.834;2022-09-09T13:46:05;0.10;;;0.10;;
22180;SDS011;11256;50.830;12.834;2022-09-09T13:51:37;0.10;;;0.10;;
22180;SDS011;11256;50.830;12.834;2022-09-09T13:56:39;0.10;;;0.10;;
22180;SDS011;11256;50.830;12.834;2022-09-09T14:01:41;0.10;;;0.10;;
22180;SDS011;11256;50.830;12.834;2022-09-09T14:06:42;0.10;;;0.10;;
22180;SDS011;11256;50.830;12.834;2022-09-09T14:11:43;0.10;;;0.10;;
22180;SDS011;11256;50.830;12.834;2022-09-09T14:16:48;0.13;;;0.13;;
22180;SDS011;11256;50.830;12.834;2022-09-09T14:21:48;0.10;;;0.10;;
22180;SDS011;11256;50.830;12.834;2022-09-09T14:26:48;0.20;;;0.20;;
22180;SDS011;11256;50.830;12.834;2022-09-09T14:31:49;0.15;;;0.15;;
22180;SDS011;11256;50.830;12.834;2022-09-09T14:36:49;0.10;;;0.10;;
22180;SDS011;11256;50.830;12.834;2022-09-09T14:41:50;0.15;;;0.15;;
22180;SDS011;11256;50.830;12.834;2022-09-09T14:46:50;0.10;;;0.10;;
22180;SDS011;11256;50.830;12.834;2022-09-09T14:51:51;0.10;;;0.10;;
22180;SDS011;11256;50.830;12.834;2022-09-09T14:56:51;0.10;;;0.10;;
22180;SDS011;11256;50.830;12.834;2022-09-09T15:01:51;0.10;;;0.10;;
22180;SDS011;11256;50.830;12.834;2022-09-09T15:06:53;0.10;;;0.10;;
22180;SDS011;11256;50.830;12.834;2022-09-09T15:11:54;0.10;;;0.10;;
22180;SDS011;11256;50.830;12.834;2022-09-09T15:16:54;0.10;;;0.10;;
22180;SDS011;11256;50.830;12.834;2022-09-09T15:21:55;0.10;;;0.10;;
22180;SDS011;11256;50.830;12.834;2022-09-09T15:26:55;0.10;;;0.10;;
22180;SDS011;11256;50.830;12.834;2022-09-09T15:31:56;0.10;;;0.10;;
22180;SDS011;11256;50.830;12.834;2022-09-09T15:36:56;0.20;;;0.20;;
22180;SDS011;11256;50.830;12.834;2022-09-09T15:41:57;0.20;;;0.20;;
22180;SDS011;11256;50.830;12.834;2022-09-09T15:46:57;0.13;;;0.13;;
22180;SDS011;11256;50.830;12.834;2022-09-09T15:51:58;0.10;;;0.10;;
22180;SDS011;11256;50.830;12.834;2022-09-09T15:57:03;0.17;;;0.17;;
22180;SDS011;11256;50.830;12.834;2022-09-09T16:02:05;0.30;;;0.30;;
22180;SDS011;11256;50.830;12.834;2022-09-09T16:07:05;0.10;;;0.10;;
22180;SDS011;11256;50.830;12.834;2022-09-09T16:12:06;0.20;;;0.20;;
22180;SDS011;11256;50.830;12.834;2022-09-09T16:17:06;0.20;;;0.20;;
22180;SDS011;11256;50.830;12.834;2022-09-09T16:22:07;0.10;;;0.10;;
22180;SDS011;11256;50.830;12.834;2022-09-09T16:27:08;0.27;;;0.27;;
22180;SDS011;11256;50.830;12.834;2022-09-09T16:32:08;0.20;;;0.20;;
22180;SDS011;11256;50.830;12.834;2022-09-09T16:37:09;0.20;;;0.20;;
22180;SDS011;11256;50.830;12.834;2022-09-09T16:42:11;0.20;;;0.20;;
22180;SDS011;11256;50.830;12.834;2022-09-09T16:47:11;0.27;;;0.27;;
22180;SDS011;11256;50.830;12.834;2022-09-09T16:52:11;0.10;;;0.10;;
22180;SDS011;11256;50.830;12.834;2022-09-09T16:57:12;0.20;;;0.20;;
22180;SDS011;11256;50.830;12.834;2022-09-09T17:02:12;0.30;;;0.30;;
22180;SDS011;11256;50.830;12.834;2022-09-09T17:07:12;0.17;;;0.17;;
22180;SDS011;11256;50.830;12.834;2022-09-09T17:12:13;0.20;;;0.20;;
22180;SDS011;11256;50.830;12.834;2022-09-09T17:17:13;0.20;;;0.20;;
22180;SDS011;11256;50.830;12.834;2022-09-09T17:22:13;0.10;;;0.10;;
22180;SDS011;11256;50.830;12.834;2022-09-09T17:27:14;0.23;;;0.23;;
22180;SDS011;11256;50.830;12.834;2022-09-09T17:32:14;0.30;;;0.30;;
22180;SDS011;11256;50.830;12.834;2022-09-09T17:37:15;0.20;;;0.20;;
22180;SDS011;11256;50.830;12.834;2022-09-09T17:42:15;0.20;;;0.20;;
22180;SDS011;11256;50.830;12.834;2022-09-09T17:47:15;0.20;;;0.20;;
22180;SDS011;11256;50.830;12.834;2022-09-09T17:52:16;0.20;;;0.20;;
22180;SDS011;11256;50.830;12.834;2022-09-09T17:57:16;0.20;;;0.20;;
22180;SDS011;11256;50.830;12.834;2022-09-09T18:02:22;0.33;;;0.33;;
22180;SDS011;11256;50.830;12.834;2022-09-09T18:07:22;0.20;;;0.20;;
22180;SDS011;11256;50.830;12.834;2022-09-09T18:12:23;0.30;;;0.30;;
22180;SDS011;11256;50.830;12.834;2022-09-09T18:17:24;0.30;;;0.30;;
22180;SDS011;11256;50.830;12.834;2022-09-09T18:22:24;0.20;;;0.20;;
22180;SDS011;11256;50.830;12.834;2022-09-09T18:27:24;0.20;;;0.20;;
22180;SDS011;11256;50.830;12.834;2022-09-09T18:32:25;0.20;;;0.20;;
22180;SDS011;11256;50.830;12.834;2022-09-09T18:37:26;0.20;;;0.20;;
22180;SDS011;11256;50.830;12.834;2022-09-09T18:42:26;0.20;;;0.20;;
22180;SDS011;11256;50.830;12.834;2022-09-09T18:47:26;0.20;;;0.20;;
22180;SDS011;11256;50.830;12.834;2022-09-09T18:52:27;0.30;;;0.30;;
22180;SDS011;11256;50.830;12.834;2022-09-09T18:57:27;0.20;;;0.20;;
22180;SDS011;11256;50.830;12.834;2022-09-09T19:02:27;0.20;;;0.20;;
22180;SDS011;11256;50.830;12.834;2022-09-09T19:07:29;0.30;;;0.30;;
22180;SDS011;11256;50.830;12.834;2022-09-09T19:12:29;0.30;;;0.30;;
22180;SDS011;11256;50.830;12.834;2022-09-09T19:17:29;0.20;;;0.20;;
22180;SDS011;11256;50.830;12.834;2022-09-09T19:22:31;0.20;;;0.20;;
22180;SDS011;11256;50.830;12.834;2022-09-09T19:27:32;0.30;;;0.30;;
22180;SDS011;11256;50.830;12.834;2022-09-09T19:32:32;0.20;;;0.20;;
22180;SDS011;11256;50.830;12.834;2022-09-09T19:37:32;0.30;;;0.30;;
22180;SDS011;11256;50.830;12.834;2022-09-09T19:42:33;0.30;;;0.30;;
22180;SDS011;11256;50.830;12.834;2022-09-09T19:47:33;0.30;;;0.30;;
22180;SDS011;11256;50.830;12.834;2022-09-09T19:52:34;0.30;;;0.30;;
22180;SDS011;11256;50.830;12.834;2022-09-09T19:57:34;0.30;;;0.30;;
22180;SDS011;11256;50.830;12.834;2022-09-09T20:02:34;0.30;;;0.30;;
22180;SDS011;11256;50.830;12.834;2022-09-09T20:07:35;0.27;;;0.27;;
22180;SDS011;11256;50.830;12.834;2022-09-09T20:12:35;0.40;;;0.40;;
22180;SDS011;11256;50.830;12.834;2022-09-09T20:17:35;0.37;;;0.37;;
22180;SDS011;11256;50.830;12.834;2022-09-09T20:22:35;0.40;;;0.40;;
22180;SDS011;11256;50.830;12.834;2022-09-09T20:27:36;0.30;;;0.30;;
22180;SDS011;11256;50.830;12.834;2022-09-09T20:32:36;0.57;;;0.57;;
22180;SDS011;11256;50.830;12.834;2022-09-09T20:37:38;0.37;;;0.37;;
22180;SDS011;11256;50.830;12.834;2022-09-09T20:42:39;0.30;;;0.30;;
22180;SDS011;11256;50.830;12.834;2022-09-09T20:47:39;0.40;;;0.40;;
22180;SDS011;11256;50.830;12.834;2022-09-09T20:52:40;0.30;;;0.30;;
22180;SDS011;11256;50.830;12.834;2022-09-09T20:57:40;0.30;;;0.30;;
22180;SDS011;11256;50.830;12.834;2022-09-09T21:02:41;0.30;;;0.30;;
22180;SDS011;11256;50.830;12.834;2022-09-09T21:07:41;0.40;;;0.40;;
22180;SDS011;11256;50.830;12.834;2022-09-09T21:12:42;0.43;;;0.43;;
22180;SDS011;11256;50.830;12.834;2022-09-09T21:17:42;0.30;;;0.30;;
22180;SDS011;11256;50.830;12.834;2022-09-09T21:22:42;0.40;;;0.40;;
22180;SDS011;11256;50.830;12.834;2022-09-09T21:27:43;0.30;;;0.30;;
22180;SDS011;11256;50.830;12.834;2022-09-09T21:32:43;0.30;;;0.30;;
22180;SDS011;11256;50.830;12.834;2022-09-09T21:37:43;0.37;;;0.37;;
22180;SDS011;11256;50.830;12.834;2022-09-09T21:42:44;0.40;;;0.40;;
22180;SDS011;11256;50.830;12.834;2022-09-09T21:47:45;0.30;;;0.30;;
22180;SDS011;11256;50.830;12.834;2022-09-09T21:52:46;0.30;;;0.30;;
22180;SDS011;11256;50.830;12.834;2022-09-09T21:57:46;0.40;;;0.40;;
22180;SDS011;11256;50.830;12.834;2022-09-09T22:02:47;0.50;;;0.50;;
22180;SDS011;11256;50.830;12.834;2022-09-09T22:07:47;0.23;;;0.23;;
22180;SDS011;11256;50.830;12.834;2022-09-09T22:12:48;0.30;;;0.30;;
22180;SDS011;11256;50.830;12.834;2022-09-09T22:17:48;0.40;;;0.40;;
22180;SDS011;11256;50.830;12.834;2022-09-09T22:22:49;0.40;;;0.40;;
22180;SDS011;11256;50.830;12.834;2022-09-09T22:27:49;0.20;;;0.20;;
22180;SDS011;11256;50.830;12.834;2022-09-09T22:32:49;0.40;;;0.40;;
22180;SDS011;11256;50.830;12.834;2022-09-09T22:37:50;0.30;;;0.30;;
22180;SDS011;11256;50.830;12.834;2022-09-09T22:42:50;0.50;;;0.50;;
22180;SDS011;11256;50.830;12.834;2022-09-09T22:47:51;0.37;;;0.37;;
22180;SDS011;11256;50.830;12.834;2022-09-09T22:52:51;0.40;;;0.40;;
22180;SDS011;11256;50.830;12.834;2022-09-09T22:57:52;0.40;;;0.40;;
22180;SDS011;11256;50.830;12.834;2022-09-09T23:02:52;0.50;;;0.50;;
22180;SDS011;11256;50.830;12.834;2022-09-09T23:07:53;0.33;;;0.33;;
22180;SDS011;11256;50.830;12.834;2022-09-09T23:12:57;0.40;;;0.40;;
22180;SDS011;11256;50.830;12.834;2022-09-09T23:17:57;0.40;;;0.40;;
22180;SDS011;11256;50.830;12.834;2022-09-09T23:22:58;0.33;;;0.33;;
22180;SDS011;11256;50.830;12.834;2022-09-09T23:28:00;0.30;;;0.30;;
22180;SDS011;11256;50.830;12.834;2022-09-09T23:33:00;0.40;;;0.40;;
22180;SDS011;11256;50.830;12.834;2022-09-09T23:38:00;0.40;;;0.40;;
22180;SDS011;11256;50.830;12.834;2022-09-09T23:43:01;0.40;;;0.40;;
22180;SDS011;11256;50.830;12.834;2022-09-09T23:48:02;0.50;;;0.50;;
22180;SDS011;11256;50.830;12.834;2022-09-09T23:53:03;0.30;;;0.30;;
22180;SDS011;11256;50.830;12.834;2022-09-09T23:58:03;0.40;;;0.40;;
